Colfax, IA (50054)

7:00 AM CDT on May 22, 2018 (GMT -0500)
prairie city ELEMENTARY SCHOOL | | Change Station
Active Advisory: Dense Fog Advisory

Elev 915 ft 41.60 °N, 93.24 °W | Updated 0 second ago

Overcast
Overcast
58.6 °F
Feels Like 58.6 °F
N
0.0
Wind Variable Wind from NW

Today
High -- | Low -- °F
--% Chance of Precip.
Yesterday
High -- | Low -- °F
Precip. -- in
Pressure 30.01 in
Visibility 2.5 miles
Clouds Scattered Clouds 1000 ft
Dew Point 58 °F
Humidity 99%
Rainfall 0.00 in
Snow Depth Not available.
5:47 AM 8:32 PM
First Quarter, 54% visible
METAR KTNU 220935Z AUTO 00000KT 2 1/2SM BR SCT010 15/15 A3001 RMK AO2
Pressure 30.01 in
Visibility 2.5 miles
Clouds Scattered Clouds 1000 ft
Dew Point 58 °F
Humidity 99%
Rainfall 0.00 in
Snow Depth Not available.
5:47 AM 8:32 PM
First Quarter, 54% visible
METAR KTNU 220935Z AUTO 00000KT 2 1/2SM BR SCT010 15/15 A3001 RMK AO2

Get Your Daily Forecast Email!

Thanks for signing up!

Be on the lookout for a verification email in your inbox.

You'll start receiving severe weather alerts in your inbox..

×

10-Day Weather Forecast

Almanac

Astronomy

May. 22, 2018 Rise Set
Actual Time
Civil Twilight
Nautical Twilight
Astronomical Twilight
Moon
Length of Visible Light
Length of Day
Tomorrow will be .
, % of the Moon is Illuminated

Today's Extremes

State Highs State Lows

Community

WunderPhotos

Category 6

Welcome to Category 6. This is the collective home for Weather Underground's featured writeups by Dr. Jeff Masters (right), Bob Henson (left), Chris Burt, and other regular contributors.

Nearby

Air Quality

  Air Quality AQ Index Pollutant
Not available.

Snow Depth

Station Depth Elevation

Earthquake Activity

City Distance Mag. Time & Date
Minimum magnitude displayed is 2.5.

Coastal Water Temperatures

Place Temperature

Stations

Nearby Weather Stations

Station Location Temp. Windchill Dew Point Humidity Wind Precip. Elev Updated Type
                   

Watches & Warnings

Dense Fog Advisory
Issued: 3:19 AM CDT May. 22, 2018 – National Weather Service

... Dense fog advisory remains in effect until 9 am CDT this
morning...

* visibility... below a quarter mile, and near zero in some areas.

* Impacts... driving will be hazardous in dense fog banks,
particularly in areas where visibility drops to near zero in a
short distance. Please allow extra travel time and drive with
caution.

Precautionary/preparedness actions...

A dense fog advisory means visibilities will frequently be
reduced to less than one quarter mile. If driving, slow down, use
your headlights, and leave plenty of distance ahead of you.



Lee